sensor_id;sensor_type;location;lat;lon;timestamp;pressure;altitude;pressure_sealevel;temperature;humidity
61874;BME280;49692;55.052;73.310;2022-08-25T00:00:21;100899.03;;;14.79;80.54
61874;BME280;49692;55.052;73.310;2022-08-25T00:02:48;100899.88;;;14.79;80.22
61874;BME280;49692;55.052;73.310;2022-08-25T00:05:15;100894.97;;;14.70;80.84
61874;BME280;49692;55.052;73.310;2022-08-25T00:07:42;100893.34;;;14.67;81.01
61874;BME280;49692;55.052;73.310;2022-08-25T00:10:09;100897.03;;;14.63;81.14
61874;BME280;49692;55.052;73.310;2022-08-25T00:12:46;100895.41;;;14.59;80.90
61874;BME280;49692;55.052;73.310;2022-08-25T00:15:13;100892.84;;;14.57;81.64
61874;BME280;49692;55.052;73.310;2022-08-25T00:17:40;100891.13;;;14.56;82.36
61874;BME280;49692;55.052;73.310;2022-08-25T00:20:08;100894.50;;;14.60;82.99
61874;BME280;49692;55.052;73.310;2022-08-25T00:22:35;100885.88;;;14.55;82.48
61874;BME280;49692;55.052;73.310;2022-08-25T00:25:02;100887.59;;;14.56;82.10
61874;BME280;49692;55.052;73.310;2022-08-25T00:27:29;100888.47;;;14.56;82.35
61874;BME280;49692;55.052;73.310;2022-08-25T00:29:56;100883.50;;;14.49;82.83
61874;BME280;49692;55.052;73.310;2022-08-25T00:32:23;100876.69;;;14.43;83.25
61874;BME280;49692;55.052;73.310;2022-08-25T00:34:50;100881.72;;;14.49;83.07
61874;BME280;49692;55.052;73.310;2022-08-25T00:37:18;100884.31;;;14.51;83.22
61874;BME280;49692;55.052;73.310;2022-08-25T00:39:45;100880.66;;;14.53;83.37
61874;BME280;49692;55.052;73.310;2022-08-25T00:42:13;100885.03;;;14.54;83.26
61874;BME280;49692;55.052;73.310;2022-08-25T00:44:40;100875.28;;;14.55;83.03
61874;BME280;49692;55.052;73.310;2022-08-25T00:47:06;100870.88;;;14.55;83.04
61874;BME280;49692;55.052;73.310;2022-08-25T00:49:54;100874.53;;;14.74;82.58
61874;BME280;49692;55.052;73.310;2022-08-25T00:52:33;100870.47;;;14.65;83.56
61874;BME280;49692;55.052;73.310;2022-08-25T00:55:15;100873.81;;;14.70;83.64
61874;BME280;49692;55.052;73.310;2022-08-25T00:57:56;100874.41;;;14.77;83.29
61874;BME280;49692;55.052;73.310;2022-08-25T01:00:31;100874.47;;;14.75;83.41
61874;BME280;49692;55.052;73.310;2022-08-25T01:02:58;100874.81;;;14.67;83.70
61874;BME280;49692;55.052;73.310;2022-08-25T01:05:29;100873.59;;;14.75;83.57
61874;BME280;49692;55.052;73.310;2022-08-25T01:08:03;100874.19;;;14.81;82.75
61874;BME280;49692;55.052;73.310;2022-08-25T01:10:34;100865.47;;;15.00;82.16
61874;BME280;49692;55.052;73.310;2022-08-25T01:13:27;100861.34;;;15.13;81.67
61874;BME280;49692;55.052;73.310;2022-08-25T01:15:56;100858.19;;;15.05;81.14
61874;BME280;49692;55.052;73.310;2022-08-25T01:18:48;100859.06;;;15.25;80.52
61874;BME280;49692;55.052;73.310;2022-08-25T01:21:20;100862.38;;;15.30;80.54
61874;BME280;49692;55.052;73.310;2022-08-25T01:24:00;100866.63;;;15.34;80.85
61874;BME280;49692;55.052;73.310;2022-08-25T01:26:32;100851.16;;;15.44;79.93
61874;BME280;49692;55.052;73.310;2022-08-25T01:29:03;100855.25;;;15.51;79.31
61874;BME280;49692;55.052;73.310;2022-08-25T01:31:54;100852.22;;;15.59;78.75
61874;BME280;49692;55.052;73.310;2022-08-25T01:34:30;100857.25;;;15.65;78.09
61874;BME280;49692;55.052;73.310;2022-08-25T01:36:58;100854.53;;;15.67;78.08
61874;BME280;49692;55.052;73.310;2022-08-25T01:39:28;100849.81;;;15.73;77.84
61874;BME280;49692;55.052;73.310;2022-08-25T01:44:41;100853.25;;;15.94;76.25
61874;BME280;49692;55.052;73.310;2022-08-25T01:47:19;100855.66;;;15.99;75.76
61874;BME280;49692;55.052;73.310;2022-08-25T01:49:46;100855.38;;;16.05;75.24
61874;BME280;49692;55.052;73.310;2022-08-25T01:54:55;100856.25;;;16.23;75.72
61874;BME280;49692;55.052;73.310;2022-08-25T01:57:22;100856.66;;;16.33;75.85
61874;BME280;49692;55.052;73.310;2022-08-25T01:59:49;100852.00;;;16.38;75.88
61874;BME280;49692;55.052;73.310;2022-08-25T02:02:17;100855.25;;;16.44;74.92
61874;BME280;49692;55.052;73.310;2022-08-25T02:04:43;100847.78;;;16.52;73.88
61874;BME280;49692;55.052;73.310;2022-08-25T02:07:10;100855.38;;;16.60;72.94
61874;BME280;49692;55.052;73.310;2022-08-25T02:09:37;100849.44;;;16.72;72.84
61874;BME280;49692;55.052;73.310;2022-08-25T02:12:06;100857.16;;;16.77;72.06
61874;BME280;49692;55.052;73.310;2022-08-25T02:14:35;100867.00;;;16.92;71.54
61874;BME280;49692;55.052;73.310;2022-08-25T02:17:02;100866.00;;;16.95;70.27
61874;BME280;49692;55.052;73.310;2022-08-25T02:19:30;100860.47;;;16.99;70.66
61874;BME280;49692;55.052;73.310;2022-08-25T02:21:58;100847.56;;;17.09;70.33
61874;BME280;49692;55.052;73.310;2022-08-25T02:24:25;100849.97;;;17.14;70.26
61874;BME280;49692;55.052;73.310;2022-08-25T02:26:52;100847.91;;;17.19;69.65
61874;BME280;49692;55.052;73.310;2022-08-25T02:29:20;100850.50;;;17.21;68.88
61874;BME280;49692;55.052;73.310;2022-08-25T02:31:48;100851.97;;;17.26;67.80
61874;BME280;49692;55.052;73.310;2022-08-25T02:34:15;100851.78;;;17.29;68.80
61874;BME280;49692;55.052;73.310;2022-08-25T02:36:42;100851.97;;;17.42;66.36
61874;BME280;49692;55.052;73.310;2022-08-25T02:39:09;100846.06;;;17.53;67.74
61874;BME280;49692;55.052;73.310;2022-08-25T02:41:36;100842.31;;;17.57;68.22
61874;BME280;49692;55.052;73.310;2022-08-25T02:44:05;100850.72;;;17.66;67.17
61874;BME280;49692;55.052;73.310;2022-08-25T02:46:32;100839.31;;;17.64;66.78
61874;BME280;49692;55.052;73.310;2022-08-25T02:48:58;100848.41;;;17.75;65.96
61874;BME280;49692;55.052;73.310;2022-08-25T02:51:25;100841.19;;;17.77;66.71
61874;BME280;49692;55.052;73.310;2022-08-25T02:53:57;100844.53;;;17.81;66.37
61874;BME280;49692;55.052;73.310;2022-08-25T02:56:25;100839.16;;;17.83;66.25
61874;BME280;49692;55.052;73.310;2022-08-25T02:58:52;100833.84;;;17.83;66.38
61874;BME280;49692;55.052;73.310;2022-08-25T03:01:29;100837.59;;;17.95;65.82
61874;BME280;49692;55.052;73.310;2022-08-25T03:03:56;100838.03;;;18.03;66.20
61874;BME280;49692;55.052;73.310;2022-08-25T03:06:24;100843.19;;;18.06;66.68
61874;BME280;49692;55.052;73.310;2022-08-25T03:08:51;100828.56;;;18.13;67.16
61874;BME280;49692;55.052;73.310;2022-08-25T03:11:19;100838.22;;;18.16;65.45
61874;BME280;49692;55.052;73.310;2022-08-25T03:13:47;100831.66;;;18.21;65.19
61874;BME280;49692;55.052;73.310;2022-08-25T03:16:16;100832.00;;;18.31;63.31
61874;BME280;49692;55.052;73.310;2022-08-25T03:18:43;100823.81;;;18.34;64.41
61874;BME280;49692;55.052;73.310;2022-08-25T03:21:11;100829.66;;;18.56;64.29
61874;BME280;49692;55.052;73.310;2022-08-25T03:23:40;100831.03;;;18.63;64.38
61874;BME280;49692;55.052;73.310;2022-08-25T03:26:07;100825.97;;;18.58;63.65
61874;BME280;49692;55.052;73.310;2022-08-25T03:28:52;100816.94;;;18.61;61.62
61874;BME280;49692;55.052;73.310;2022-08-25T03:31:21;100815.84;;;18.79;62.47
61874;BME280;49692;55.052;73.310;2022-08-25T03:33:59;100813.75;;;18.85;62.41
61874;BME280;49692;55.052;73.310;2022-08-25T03:36:26;100820.41;;;18.92;61.80
61874;BME280;49692;55.052;73.310;2022-08-25T03:38:53;100820.06;;;18.98;61.54
61874;BME280;49692;55.052;73.310;2022-08-25T03:41:25;100809.50;;;19.11;60.40
61874;BME280;49692;55.052;73.310;2022-08-25T03:43:54;100811.69;;;19.19;61.33
61874;BME280;49692;55.052;73.310;2022-08-25T03:46:24;100799.59;;;19.27;61.51
61874;BME280;49692;55.052;73.310;2022-08-25T03:48:52;100802.91;;;19.31;60.52
61874;BME280;49692;55.052;73.310;2022-08-25T03:51:21;100804.59;;;19.47;61.13
61874;BME280;49692;55.052;73.310;2022-08-25T03:53:50;100805.28;;;19.50;61.07
61874;BME280;49692;55.052;73.310;2022-08-25T03:56:18;100794.97;;;19.58;61.67
61874;BME280;49692;55.052;73.310;2022-08-25T03:58:45;100799.34;;;19.59;59.67
61874;BME280;49692;55.052;73.310;2022-08-25T04:01:13;100797.91;;;19.68;60.95
61874;BME280;49692;55.052;73.310;2022-08-25T04:03:40;100797.78;;;19.70;58.43
61874;BME280;49692;55.052;73.310;2022-08-25T04:06:08;100794.22;;;19.84;58.69
61874;BME280;49692;55.052;73.310;2022-08-25T04:08:35;100796.13;;;19.96;58.75
61874;BME280;49692;55.052;73.310;2022-08-25T04:11:08;100794.03;;;20.14;59.37
61874;BME280;49692;55.052;73.310;2022-08-25T04:13:35;100789.31;;;20.05;60.28
61874;BME280;49692;55.052;73.310;2022-08-25T04:16:09;100789.38;;;20.18;58.37
61874;BME280;49692;55.052;73.310;2022-08-25T04:18:36;100793.75;;;20.19;58.70
61874;BME280;49692;55.052;73.310;2022-08-25T04:21:03;100792.72;;;20.34;59.43
61874;BME280;49692;55.052;73.310;2022-08-25T04:23:31;100783.94;;;20.32;56.98
61874;BME280;49692;55.052;73.310;2022-08-25T04:25:58;100792.91;;;20.44;56.54
61874;BME280;49692;55.052;73.310;2022-08-25T04:28:29;100801.28;;;20.53;58.71
61874;BME280;49692;55.052;73.310;2022-08-25T04:30:56;100787.72;;;20.56;53.73
61874;BME280;49692;55.052;73.310;2022-08-25T04:33:25;100790.06;;;20.60;56.21
61874;BME280;49692;55.052;73.310;2022-08-25T04:35:53;100781.53;;;20.68;55.98
61874;BME280;49692;55.052;73.310;2022-08-25T04:38:20;100782.16;;;20.72;55.07
61874;BME280;49692;55.052;73.310;2022-08-25T04:40:58;100779.41;;;20.99;53.96
61874;BME280;49692;55.052;73.310;2022-08-25T04:43:25;100782.50;;;20.93;51.32
61874;BME280;49692;55.052;73.310;2022-08-25T04:45:53;100775.56;;;21.03;53.99
61874;BME280;49692;55.052;73.310;2022-08-25T04:48:20;100771.28;;;21.01;51.53
61874;BME280;49692;55.052;73.310;2022-08-25T04:50:47;100777.56;;;21.13;53.32
61874;BME280;49692;55.052;73.310;2022-08-25T04:53:19;100761.19;;;21.17;50.96
61874;BME280;49692;55.052;73.310;2022-08-25T04:55:48;100774.63;;;21.29;51.91
61874;BME280;49692;55.052;73.310;2022-08-25T04:58:15;100767.28;;;21.32;53.56
61874;BME280;49692;55.052;73.310;2022-08-25T05:00:46;100769.25;;;21.41;50.01
61874;BME280;49692;55.052;73.310;2022-08-25T05:03:13;100762.50;;;21.49;51.22
61874;BME280;49692;55.052;73.310;2022-08-25T05:05:51;100764.28;;;21.61;51.84
61874;BME280;49692;55.052;73.310;2022-08-25T05:08:17;100760.13;;;21.57;52.75
61874;BME280;49692;55.052;73.310;2022-08-25T05:10:54;100762.44;;;21.62;47.31
61874;BME280;49692;55.052;73.310;2022-08-25T05:13:23;100761.34;;;21.77;50.17
61874;BME280;49692;55.052;73.310;2022-08-25T05:15:55;100756.31;;;21.97;49.70
61874;BME280;49692;55.052;73.310;2022-08-25T05:18:30;100758.25;;;21.95;47.39
61874;BME280;49692;55.052;73.310;2022-08-25T05:21:04;100749.78;;;22.01;45.60
61874;BME280;49692;55.052;73.310;2022-08-25T05:23:32;100750.50;;;22.03;46.21
61874;BME280;49692;55.052;73.310;2022-08-25T05:26:06;100742.16;;;22.19;47.93
61874;BME280;49692;55.052;73.310;2022-08-25T05:28:33;100747.75;;;22.16;47.99
61874;BME280;49692;55.052;73.310;2022-08-25T05:31:01;100740.47;;;22.29;45.37
61874;BME280;49692;55.052;73.310;2022-08-25T05:33:30;100739.72;;;22.27;46.88
61874;BME280;49692;55.052;73.310;2022-08-25T05:35:57;100741.72;;;22.37;46.78
61874;BME280;49692;55.052;73.310;2022-08-25T05:38:27;100724.56;;;22.39;48.36
61874;BME280;49692;55.052;73.310;2022-08-25T05:41:00;100731.16;;;22.46;48.33
61874;BME280;49692;55.052;73.310;2022-08-25T05:43:42;100717.75;;;22.46;44.87
61874;BME280;49692;55.052;73.310;2022-08-25T05:46:19;100722.25;;;22.57;46.12
61874;BME280;49692;55.052;73.310;2022-08-25T05:48:49;100710.31;;;22.50;46.86
61874;BME280;49692;55.052;73.310;2022-08-25T05:51:16;100708.00;;;22.57;44.26
61874;BME280;49692;55.052;73.310;2022-08-25T05:53:48;100706.84;;;22.72;46.10
61874;BME280;49692;55.052;73.310;2022-08-25T05:56:15;100707.69;;;22.73;43.90
61874;BME280;49692;55.052;73.310;2022-08-25T05:58:43;100711.69;;;22.78;45.87
61874;BME280;49692;55.052;73.310;2022-08-25T06:01:24;100705.59;;;22.99;44.57
61874;BME280;49692;55.052;73.310;2022-08-25T06:04:22;100701.59;;;22.93;47.23
61874;BME280;49692;55.052;73.310;2022-08-25T06:06:49;100697.56;;;22.99;47.71
61874;BME280;49692;55.052;73.310;2022-08-25T06:09:19;100692.44;;;23.07;42.98
61874;BME280;49692;55.052;73.310;2022-08-25T06:11:46;100680.25;;;23.03;45.27
61874;BME280;49692;55.052;73.310;2022-08-25T06:14:14;100682.69;;;23.06;43.46
61874;BME280;49692;55.052;73.310;2022-08-25T06:16:41;100674.84;;;23.15;43.77
61874;BME280;49692;55.052;73.310;2022-08-25T06:19:09;100681.16;;;23.25;43.38
61874;BME280;49692;55.052;73.310;2022-08-25T06:21:36;100672.28;;;23.25;46.06
61874;BME280;49692;55.052;73.310;2022-08-25T06:24:07;100663.97;;;23.28;41.91
61874;BME280;49692;55.052;73.310;2022-08-25T06:26:46;100657.03;;;23.25;42.54
61874;BME280;49692;55.052;73.310;2022-08-25T06:29:12;100659.44;;;23.28;41.54
61874;BME280;49692;55.052;73.310;2022-08-25T06:31:39;100659.19;;;23.43;43.85
61874;BME280;49692;55.052;73.310;2022-08-25T06:34:07;100658.22;;;23.44;45.42
61874;BME280;49692;55.052;73.310;2022-08-25T06:36:43;100654.06;;;23.51;44.12
61874;BME280;49692;55.052;73.310;2022-08-25T06:39:10;100649.75;;;23.60;42.58
61874;BME280;49692;55.052;73.310;2022-08-25T06:41:37;100646.28;;;23.69;43.04
61874;BME280;49692;55.052;73.310;2022-08-25T06:44:04;100638.41;;;23.77;45.10
61874;BME280;49692;55.052;73.310;2022-08-25T06:46:32;100652.56;;;23.79;44.50
61874;BME280;49692;55.052;73.310;2022-08-25T06:49:00;100641.00;;;23.79;44.89
61874;BME280;49692;55.052;73.310;2022-08-25T06:51:28;100638.31;;;23.79;42.09
61874;BME280;49692;55.052;73.310;2022-08-25T06:53:56;100634.97;;;23.87;42.46
61874;BME280;49692;55.052;73.310;2022-08-25T06:56:22;100629.78;;;23.95;45.30
61874;BME280;49692;55.052;73.310;2022-08-25T06:58:49;100622.69;;;23.94;41.65
61874;BME280;49692;55.052;73.310;2022-08-25T07:01:25;100625.75;;;24.10;40.69
61874;BME280;49692;55.052;73.310;2022-08-25T07:03:54;100618.56;;;24.11;40.15
61874;BME280;49692;55.052;73.310;2022-08-25T07:06:27;100621.97;;;24.13;39.85
61874;BME280;49692;55.052;73.310;2022-08-25T07:08:56;100613.63;;;24.16;39.25
61874;BME280;49692;55.052;73.310;2022-08-25T07:11:23;100616.66;;;24.23;39.82
61874;BME280;49692;55.052;73.310;2022-08-25T07:13:50;100621.38;;;24.31;43.17
61874;BME280;49692;55.052;73.310;2022-08-25T07:16:18;100611.53;;;24.41;42.41
61874;BME280;49692;55.052;73.310;2022-08-25T07:18:46;100601.31;;;24.35;41.71
61874;BME280;49692;55.052;73.310;2022-08-25T07:21:14;100605.28;;;24.40;40.42
61874;BME280;49692;55.052;73.310;2022-08-25T07:23:51;100602.88;;;24.37;40.06
61874;BME280;49692;55.052;73.310;2022-08-25T07:26:21;100599.53;;;24.55;40.98
61874;BME280;49692;55.052;73.310;2022-08-25T07:28:53;100597.56;;;24.57;41.26
61874;BME280;49692;55.052;73.310;2022-08-25T07:31:20;100599.00;;;24.61;41.62
61874;BME280;49692;55.052;73.310;2022-08-25T07:33:48;100603.97;;;24.66;40.09
61874;BME280;49692;55.052;73.310;2022-08-25T07:36:33;100595.63;;;24.69;40.79
61874;BME280;49692;55.052;73.310;2022-08-25T07:39:02;100589.16;;;24.81;40.77
61874;BME280;49692;55.052;73.310;2022-08-25T07:41:39;100584.94;;;24.88;40.98
61874;BME280;49692;55.052;73.310;2022-08-25T07:44:07;100578.69;;;24.88;40.00
61874;BME280;49692;55.052;73.310;2022-08-25T07:46:40;100586.91;;;24.86;40.35
61874;BME280;49692;55.052;73.310;2022-08-25T07:49:06;100585.91;;;24.87;41.93
61874;BME280;49692;55.052;73.310;2022-08-25T07:51:51;100576.88;;;24.88;41.75
61874;BME280;49692;55.052;73.310;2022-08-25T07:54:27;100574.75;;;24.92;40.88
61874;BME280;49692;55.052;73.310;2022-08-25T07:56:58;100572.09;;;25.02;41.18
61874;BME280;49692;55.052;73.310;2022-08-25T07:59:31;100567.13;;;25.07;40.62
61874;BME280;49692;55.052;73.310;2022-08-25T08:01:58;100560.63;;;25.19;40.44
61874;BME280;49692;55.052;73.310;2022-08-25T08:04:24;100562.19;;;25.32;40.88
61874;BME280;49692;55.052;73.310;2022-08-25T08:06:51;100564.00;;;25.31;40.92
61874;BME280;49692;55.052;73.310;2022-08-25T08:09:17;100564.44;;;25.46;40.80
61874;BME280;49692;55.052;73.310;2022-08-25T08:11:44;100552.22;;;25.62;41.58
61874;BME280;49692;55.052;73.310;2022-08-25T08:14:11;100549.66;;;25.60;41.86
61874;BME280;49692;55.052;73.310;2022-08-25T08:16:48;100554.34;;;25.58;40.91
61874;BME280;49692;55.052;73.310;2022-08-25T08:19:18;100551.53;;;25.60;41.42
61874;BME280;49692;55.052;73.310;2022-08-25T08:21:46;100545.25;;;25.69;40.35
61874;BME280;49692;55.052;73.310;2022-08-25T08:24:13;100548.13;;;25.58;41.15
61874;BME280;49692;55.052;73.310;2022-08-25T08:26:40;100543.88;;;25.65;40.44
61874;BME280;49692;55.052;73.310;2022-08-25T08:29:06;100537.47;;;25.76;41.83
61874;BME280;49692;55.052;73.310;2022-08-25T08:31:33;100531.53;;;25.72;40.95
61874;BME280;49692;55.052;73.310;2022-08-25T08:34:05;100539.34;;;25.75;41.35
61874;BME280;49692;55.052;73.310;2022-08-25T08:36:37;100541.16;;;25.75;40.89
61874;BME280;49692;55.052;73.310;2022-08-25T08:39:03;100529.97;;;25.79;40.89
61874;BME280;49692;55.052;73.310;2022-08-25T08:42:03;100523.91;;;26.05;40.92
61874;BME280;49692;55.052;73.310;2022-08-25T08:45:21;100525.72;;;26.15;41.08
61874;BME280;49692;55.052;73.310;2022-08-25T08:48:19;100529.53;;;26.22;41.40
61874;BME280;49692;55.052;73.310;2022-08-25T08:51:00;100521.28;;;26.23;41.80
61874;BME280;49692;55.052;73.310;2022-08-25T08:53:58;100520.06;;;26.36;41.98
61874;BME280;49692;55.052;73.310;2022-08-25T08:56:33;100513.06;;;26.25;41.41
61874;BME280;49692;55.052;73.310;2022-08-25T08:59:12;100511.97;;;26.46;41.86
61874;BME280;49692;55.052;73.310;2022-08-25T09:01:50;100521.69;;;26.29;42.90
61874;BME280;49692;55.052;73.310;2022-08-25T09:04:42;100513.59;;;26.29;42.91
61874;BME280;49692;55.052;73.310;2022-08-25T09:07:18;100514.72;;;26.26;43.41
61874;BME280;49692;55.052;73.310;2022-08-25T09:09:45;100503.41;;;25.94;42.86
61874;BME280;49692;55.052;73.310;2022-08-25T09:12:25;100505.84;;;26.16;43.19
61874;BME280;49692;55.052;73.310;2022-08-25T09:15:10;100496.31;;;26.21;42.43
61874;BME280;49692;55.052;73.310;2022-08-25T09:26:19;100501.13;;;26.00;41.91
61874;BME280;49692;55.052;73.310;2022-08-25T09:28:53;100484.41;;;26.24;42.41
61874;BME280;49692;55.052;73.310;2022-08-25T09:31:33;100490.13;;;26.39;42.00
61874;BME280;49692;55.052;73.310;2022-08-25T09:34:19;100483.16;;;26.46;41.80
61874;BME280;49692;55.052;73.310;2022-08-25T09:36:51;100477.09;;;26.34;41.72
61874;BME280;49692;55.052;73.310;2022-08-25T09:39:21;100468.25;;;26.24;42.06
61874;BME280;49692;55.052;73.310;2022-08-25T09:41:57;100481.66;;;26.06;42.17
61874;BME280;49692;55.052;73.310;2022-08-25T09:44:30;100476.88;;;26.27;43.11
61874;BME280;49692;55.052;73.310;2022-08-25T09:49:44;100473.44;;;26.07;42.55
61874;BME280;49692;55.052;73.310;2022-08-25T09:52:38;100462.53;;;26.27;42.03
61874;BME280;49692;55.052;73.310;2022-08-25T09:57:55;100466.31;;;26.34;43.19
61874;BME280;49692;55.052;73.310;2022-08-25T10:00:33;100458.28;;;26.24;42.56
61874;BME280;49692;55.052;73.310;2022-08-25T10:05:30;100439.19;;;26.18;42.62
61874;BME280;49692;55.052;73.310;2022-08-25T10:08:09;100436.56;;;26.54;41.40
61874;BME280;49692;55.052;73.310;2022-08-25T10:10:44;100444.81;;;26.70;41.24
61874;BME280;49692;55.052;73.310;2022-08-25T10:13:18;100441.88;;;26.82;40.89
61874;BME280;49692;55.052;73.310;2022-08-25T10:15:46;100441.19;;;26.62;41.53
61874;BME280;49692;55.052;73.310;2022-08-25T10:18:22;100432.47;;;26.32;44.77
61874;BME280;49692;55.052;73.310;2022-08-25T10:21:09;100424.41;;;26.50;42.23
61874;BME280;49692;55.052;73.310;2022-08-25T10:23:51;100425.78;;;26.54;41.74
61874;BME280;49692;55.052;73.310;2022-08-25T10:32:26;100420.97;;;27.02;41.38
61874;BME280;49692;55.052;73.310;2022-08-25T10:34:58;100417.66;;;26.90;40.92
61874;BME280;49692;55.052;73.310;2022-08-25T10:43:10;100397.44;;;27.12;40.56
61874;BME280;49692;55.052;73.310;2022-08-25T10:45:53;100394.72;;;27.30;41.60
61874;BME280;49692;55.052;73.310;2022-08-25T10:48:47;100389.63;;;27.27;40.99
61874;BME280;49692;55.052;73.310;2022-08-25T10:53:57;100390.22;;;27.13;38.28
61874;BME280;49692;55.052;73.310;2022-08-25T10:56:33;100389.28;;;27.04;38.53
61874;BME280;49692;55.052;73.310;2022-08-25T10:59:34;100383.38;;;27.27;38.17
61874;BME280;49692;55.052;73.310;2022-08-25T11:07:45;100381.38;;;28.15;37.41
61874;BME280;49692;55.052;73.310;2022-08-25T11:10:18;100370.72;;;29.37;35.28
61874;BME280;49692;55.052;73.310;2022-08-25T11:12:55;100355.84;;;30.28;33.72
61874;BME280;49692;55.052;73.310;2022-08-25T11:18:19;100352.72;;;31.46;31.51
61874;BME280;49692;55.052;73.310;2022-08-25T11:21:08;100352.66;;;31.39;31.15
61874;BME280;49692;55.052;73.310;2022-08-25T11:26:29;100358.16;;;31.61;30.90
61874;BME280;49692;55.052;73.310;2022-08-25T11:29:17;100357.88;;;31.55;31.64
61874;BME280;49692;55.052;73.310;2022-08-25T11:31:50;100340.94;;;31.23;32.78
61874;BME280;49692;55.052;73.310;2022-08-25T11:34:19;100351.53;;;30.80;32.28
61874;BME280;49692;55.052;73.310;2022-08-25T11:36:55;100348.91;;;30.72;32.34
61874;BME280;49692;55.052;73.310;2022-08-25T11:51:01;100344.06;;;28.93;36.52
61874;BME280;49692;55.052;73.310;2022-08-25T11:53:37;100350.34;;;28.44;37.22
61874;BME280;49692;55.052;73.310;2022-08-25T11:56:32;100343.91;;;28.28;36.99
61874;BME280;49692;55.052;73.310;2022-08-25T11:59:01;100337.50;;;28.29;36.77
61874;BME280;49692;55.052;73.310;2022-08-25T12:04:31;100338.00;;;28.74;37.32
61874;BME280;49692;55.052;73.310;2022-08-25T12:23:43;100345.34;;;27.89;38.00
61874;BME280;49692;55.052;73.310;2022-08-25T12:30:04;100341.38;;;27.75;38.20
61874;BME280;49692;55.052;73.310;2022-08-25T12:40:59;100327.44;;;27.45;40.09
61874;BME280;49692;55.052;73.310;2022-08-25T12:43:48;100332.81;;;27.37;40.08
61874;BME280;49692;55.052;73.310;2022-08-25T12:48:57;100331.06;;;27.28;40.62
61874;BME280;49692;55.052;73.310;2022-08-25T12:54:20;100337.34;;;27.10;41.52
61874;BME280;49692;55.052;73.310;2022-08-25T12:57:00;100342.56;;;27.03;45.20
61874;BME280;49692;55.052;73.310;2022-08-25T12:59:40;100339.03;;;27.03;42.63
61874;BME280;49692;55.052;73.310;2022-08-25T13:02:34;100338.13;;;26.94;43.36
61874;BME280;49692;55.052;73.310;2022-08-25T13:05:40;100338.75;;;26.88;43.57
61874;BME280;49692;55.052;73.310;2022-08-25T13:08:20;100339.00;;;26.77;43.25
61874;BME280;49692;55.052;73.310;2022-08-25T13:11:01;100337.84;;;26.79;43.74
61874;BME280;49692;55.052;73.310;2022-08-25T13:16:38;100329.53;;;26.72;43.92
61874;BME280;49692;55.052;73.310;2022-08-25T13:19:06;100316.88;;;26.47;45.10
61874;BME280;49692;55.052;73.310;2022-08-25T13:21:36;100330.56;;;26.35;45.75
61874;BME280;49692;55.052;73.310;2022-08-25T13:24:10;100323.78;;;26.31;45.97
61874;BME280;49692;55.052;73.310;2022-08-25T13:26:53;100321.41;;;26.10;48.03
61874;BME280;49692;55.052;73.310;2022-08-25T13:29:51;100320.66;;;26.00;46.29
61874;BME280;49692;55.052;73.310;2022-08-25T13:32:27;100317.84;;;25.91;48.52
61874;BME280;49692;55.052;73.310;2022-08-25T13:35:10;100321.41;;;25.64;50.02
61874;BME280;49692;55.052;73.310;2022-08-25T13:37:37;100319.72;;;25.35;51.12
61874;BME280;49692;55.052;73.310;2022-08-25T13:40:14;100322.41;;;25.35;49.53
61874;BME280;49692;55.052;73.310;2022-08-25T13:42:49;100316.75;;;25.28;49.26
61874;BME280;49692;55.052;73.310;2022-08-25T13:45:19;100322.63;;;25.14;52.37
61874;BME280;49692;55.052;73.310;2022-08-25T13:47:47;100331.88;;;25.01;52.39
61874;BME280;49692;55.052;73.310;2022-08-25T13:55:52;100337.56;;;24.69;53.54
61874;BME280;49692;55.052;73.310;2022-08-25T13:58:34;100331.66;;;24.55;54.71
61874;BME280;49692;55.052;73.310;2022-08-25T14:03:42;100334.44;;;24.14;56.52
61874;BME280;49692;55.052;73.310;2022-08-25T14:06:20;100338.00;;;24.05;56.56
61874;BME280;49692;55.052;73.310;2022-08-25T14:11:31;100350.94;;;23.90;58.09
61874;BME280;49692;55.052;73.310;2022-08-25T14:14:03;100349.00;;;24.02;54.65
61874;BME280;49692;55.052;73.310;2022-08-25T14:16:32;100351.16;;;24.28;53.71
61874;BME280;49692;55.052;73.310;2022-08-25T14:19:03;100343.66;;;24.32;53.47
61874;BME280;49692;55.052;73.310;2022-08-25T14:21:31;100349.91;;;24.42;53.44
61874;BME280;49692;55.052;73.310;2022-08-25T14:23:58;100355.69;;;24.37;53.07
61874;BME280;49692;55.052;73.310;2022-08-25T14:26:29;100358.69;;;24.34;53.01
61874;BME280;49692;55.052;73.310;2022-08-25T14:29:08;100356.97;;;24.33;53.25
61874;BME280;49692;55.052;73.310;2022-08-25T14:31:39;100357.81;;;24.34;53.76
61874;BME280;49692;55.052;73.310;2022-08-25T14:34:12;100371.25;;;24.24;54.20
61874;BME280;49692;55.052;73.310;2022-08-25T14:36:40;100360.47;;;24.14;55.27
61874;BME280;49692;55.052;73.310;2022-08-25T14:39:09;100360.19;;;24.17;54.96
61874;BME280;49692;55.052;73.310;2022-08-25T14:41:46;100365.53;;;23.97;56.12
61874;BME280;49692;55.052;73.310;2022-08-25T14:44:13;100370.59;;;24.01;56.69
61874;BME280;49692;55.052;73.310;2022-08-25T14:46:55;100367.34;;;23.97;55.96
61874;BME280;49692;55.052;73.310;2022-08-25T14:49:24;100365.78;;;23.84;56.71
61874;BME280;49692;55.052;73.310;2022-08-25T14:51:56;100360.94;;;23.68;57.74
61874;BME280;49692;55.052;73.310;2022-08-25T14:54:29;100375.47;;;23.66;57.47
61874;BME280;49692;55.052;73.310;2022-08-25T14:57:02;100366.00;;;23.72;58.74